Time;durP1;ratioP1;P1;durP2;ratioP2;P2;SDS_P1;SDS_P2;PMS_P1;PMS_P2;Temp;Humidity;BMP_temperature;BMP_pressure;BME280_temperature;BME280_humidity;BME280_pressure;Samples;Min_cycle;Max_cycle;Signal;HPM_P1;HPM_P2
2021/03/01 00:00:09;;;;;;;51.72;35.55;;;4.20;99.90;;;;;;4977583;28;20281;-88
2021/03/01 00:02:36;;;;;;;56.00;38.53;;;4.20;99.90;;;;;;4978058;28;20228;-88
2021/03/01 00:05:03;;;;;;;56.70;39.75;;;4.20;99.90;;;;;;4977970;28;20193;-88
2021/03/01 00:07:30;;;;;;;54.33;34.97;;;4.20;99.90;;;;;;4981361;28;20191;-88
2021/03/01 00:09:57;;;;;;;57.40;37.58;;;4.20;99.90;;;;;;4991006;28;20194;-87
2021/03/01 00:12:23;;;;;;;49.83;36.78;;;4.20;99.90;;;;;;4981809;28;20357;-88
2021/03/01 00:14:50;;;;;;;53.50;36.10;;;4.30;99.90;;;;;;4978083;28;20193;-88
2021/03/01 00:17:17;;;;;;;51.80;36.65;;;4.30;99.90;;;;;;4977612;28;20198;-88
2021/03/01 00:19:43;;;;;;;53.33;37.55;;;4.30;99.90;;;;;;4979383;28;20199;-88
2021/03/01 00:22:09;;;;;;;58.58;40.05;;;4.30;99.90;;;;;;4976943;28;20229;-87
2021/03/01 00:24:36;;;;;;;49.22;35.00;;;4.30;99.90;;;;;;4977280;28;20187;-89
2021/03/01 00:27:02;;;;;;;39.20;28.30;;;4.20;99.90;;;;;;4977619;28;20203;-87
2021/03/01 00:29:28;;;;;;;47.47;32.25;;;4.10;99.90;;;;;;4976837;28;20204;-88
2021/03/01 00:31:56;;;;;;;50.00;33.50;;;4.00;99.90;;;;;;4977093;28;20191;-88
2021/03/01 00:34:22;;;;;;;58.58;31.88;;;4.00;99.90;;;;;;4976590;28;20193;-88
2021/03/01 00:36:48;;;;;;;46.53;29.65;;;3.90;99.90;;;;;;4977217;28;20197;-87
2021/03/01 00:39:14;;;;;;;45.70;29.60;;;3.90;99.90;;;;;;4976465;28;20202;-88
2021/03/01 00:41:41;;;;;;;55.35;32.47;;;3.90;99.90;;;;;;4976836;28;20220;-88
2021/03/01 00:44:07;;;;;;;56.80;33.80;;;3.80;99.90;;;;;;4976203;28;20193;-88
2021/03/01 00:46:33;;;;;;;46.45;31.15;;;3.80;99.90;;;;;;4975544;28;20194;-89
2021/03/01 00:49:01;;;;;;;52.78;35.80;;;3.80;99.90;;;;;;4976209;28;20194;-88
2021/03/01 00:51:27;;;;;;;64.13;38.72;;;3.80;99.90;;;;;;4976145;28;20950;-88
2021/03/01 00:53:53;;;;;;;51.53;34.20;;;3.80;99.90;;;;;;4976252;28;20220;-89
2021/03/01 00:56:19;;;;;;;51.03;34.10;;;3.80;99.90;;;;;;4976266;28;20194;-89
2021/03/01 00:58:46;;;;;;;52.20;34.42;;;3.80;99.90;;;;;;4975543;28;20194;-88
2021/03/01 01:01:12;;;;;;;53.42;33.70;;;3.80;99.90;;;;;;4976145;28;20202;-88
2021/03/01 01:03:38;;;;;;;70.93;40.42;;;3.80;99.90;;;;;;4975872;28;20193;-88
2021/03/01 01:06:06;;;;;;;57.22;36.42;;;3.90;99.90;;;;;;4976272;28;20190;-88
2021/03/01 01:08:32;;;;;;;93.22;41.20;;;3.90;99.90;;;;;;4975927;28;20189;-87
2021/03/01 01:10:59;;;;;;;57.22;36.78;;;3.80;99.90;;;;;;4976147;28;20604;-88
2021/03/01 01:13:25;;;;;;;63.58;41.20;;;3.80;99.90;;;;;;4975743;28;20281;-88
2021/03/01 01:15:51;;;;;;;68.13;39.28;;;3.80;99.90;;;;;;4975809;28;20549;-88
2021/03/01 01:18:18;;;;;;;65.88;38.08;;;3.80;99.90;;;;;;4975215;28;20194;-88
2021/03/01 01:20:44;;;;;;;86.57;41.33;;;3.80;99.90;;;;;;4975336;28;20190;-88
2021/03/01 01:23:11;;;;;;;61.90;37.70;;;3.80;99.90;;;;;;4974890;28;20216;-88
2021/03/01 01:25:38;;;;;;;59.03;38.35;;;3.80;99.90;;;;;;4976015;28;20236;-87
2021/03/01 01:28:04;;;;;;;66.80;38.60;;;3.80;99.90;;;;;;4976767;28;20190;-88
2021/03/01 01:30:30;;;;;;;64.50;39.78;;;3.80;99.90;;;;;;4976632;28;20647;-88
2021/03/01 01:32:56;;;;;;;62.95;42.78;;;3.80;99.90;;;;;;4976588;28;20190;-88
2021/03/01 01:35:23;;;;;;;63.15;39.45;;;3.80;99.90;;;;;;4975641;28;20572;-89
2021/03/01 01:37:50;;;;;;;72.85;40.88;;;3.90;99.90;;;;;;4975183;28;20194;-88
2021/03/01 01:40:20;;;;;;;71.40;37.85;;;3.80;99.90;;;;;;4975130;28;20273;-88
2021/03/01 01:42:46;;;;;;;67.50;40.08;;;3.80;99.90;;;;;;4975276;28;20228;-88
2021/03/01 01:45:15;;;;;;;71.00;41.05;;;3.80;99.90;;;;;;4976213;28;20202;-88
2021/03/01 01:47:42;;;;;;;60.80;40.58;;;3.90;99.90;;;;;;4976386;28;20195;-88
2021/03/01 01:50:10;;;;;;;63.88;41.38;;;3.90;99.90;;;;;;4957449;28;20594;-88
2021/03/01 01:52:37;;;;;;;73.70;42.53;;;3.90;99.90;;;;;;4960866;28;20553;-88
2021/03/01 01:55:05;;;;;;;64.53;44.15;;;3.90;99.90;;;;;;4975227;28;20193;-88
2021/03/01 01:57:33;;;;;;;52.80;35.97;;;4.00;99.90;;;;;;4974809;28;20187;-88
2021/03/01 01:59:59;;;;;;;55.63;36.70;;;4.00;99.90;;;;;;4974874;28;20557;-89
2021/03/01 02:02:26;;;;;;;52.13;33.33;;;4.00;99.90;;;;;;4975104;28;20218;-88
2021/03/01 02:04:56;;;;;;;53.83;35.95;;;3.90;99.90;;;;;;4974748;28;20566;-87
2021/03/01 02:07:31;;;;;;;52.25;33.28;;;3.90;99.90;;;;;;4975363;28;20206;-88
2021/03/01 02:10:08;;;;;;;54.47;36.72;;;3.80;99.90;;;;;;4974883;28;20201;-88
2021/03/01 02:12:45;;;;;;;57.30;36.72;;;3.80;99.90;;;;;;4974709;28;20200;-88
2021/03/01 02:15:18;;;;;;;50.00;34.17;;;3.80;99.90;;;;;;4973784;28;20194;-88
2021/03/01 02:17:45;;;;;;;53.47;34.42;;;3.80;99.90;;;;;;4974694;28;20613;-88
2021/03/01 02:20:12;;;;;;;49.80;36.25;;;3.80;99.90;;;;;;4974522;28;20196;-89
2021/03/01 02:22:39;;;;;;;52.17;32.92;;;3.80;99.90;;;;;;4974288;28;20220;-88
2021/03/01 02:25:08;;;;;;;54.03;34.67;;;3.80;99.90;;;;;;4974673;28;20531;-88
2021/03/01 02:27:39;;;;;;;53.00;33.35;;;3.80;99.90;;;;;;4974117;28;20196;-88
2021/03/01 02:30:11;;;;;;;60.15;39.17;;;3.80;99.90;;;;;;4974831;28;20182;-88
2021/03/01 02:32:38;;;;;;;66.53;35.65;;;3.80;99.90;;;;;;4974745;28;20198;-88
2021/03/01 02:35:07;;;;;;;59.42;36.45;;;3.80;99.90;;;;;;4974527;28;20198;-88
2021/03/01 02:37:36;;;;;;;55.40;34.67;;;3.70;99.90;;;;;;4975566;28;20568;-89
2021/03/01 02:40:06;;;;;;;63.22;37.70;;;3.80;99.90;;;;;;4978163;28;20202;-88
2021/03/01 02:42:34;;;;;;;56.53;34.95;;;3.80;99.90;;;;;;4988420;28;20239;-90
2021/03/01 02:45:01;;;;;;;57.42;38.25;;;3.80;99.90;;;;;;4977671;28;20271;-88
2021/03/01 02:47:28;;;;;;;59.45;39.53;;;3.80;99.90;;;;;;4975254;28;20654;-88
2021/03/01 02:49:57;;;;;;;60.83;39.80;;;3.80;99.90;;;;;;4974683;28;20202;-88
2021/03/01 02:52:25;;;;;;;62.55;36.95;;;3.80;99.90;;;;;;4965988;28;20194;-88
2021/03/01 02:54:52;;;;;;;58.92;37.65;;;3.90;99.90;;;;;;4974332;28;20534;-88
2021/03/01 02:57:21;;;;;;;55.83;35.30;;;3.90;99.90;;;;;;4974600;28;20194;-88
2021/03/01 02:59:49;;;;;;;57.00;35.65;;;3.80;99.90;;;;;;4974489;28;20202;-88
2021/03/01 03:02:17;;;;;;;55.83;37.28;;;3.90;99.90;;;;;;4974225;28;20248;-87
2021/03/01 03:04:46;;;;;;;49.08;34.08;;;3.80;99.90;;;;;;4973884;28;20569;-88
2021/03/01 03:07:14;;;;;;;59.47;37.50;;;3.80;99.90;;;;;;4974057;28;20743;-88
2021/03/01 03:09:46;;;;;;;51.25;35.95;;;3.80;99.90;;;;;;4974842;28;20206;-88
2021/03/01 03:12:14;;;;;;;54.40;34.28;;;3.80;99.90;;;;;;4978575;28;20186;-89
2021/03/01 03:14:42;;;;;;;55.95;35.65;;;3.80;99.90;;;;;;4978388;28;20202;-88
2021/03/01 03:17:09;;;;;;;60.30;36.80;;;3.70;99.90;;;;;;4985182;28;20190;-88
2021/03/01 03:19:36;;;;;;;54.97;34.95;;;3.70;99.90;;;;;;4978788;28;20185;-88
2021/03/01 03:22:03;;;;;;;49.92;34.03;;;3.70;99.90;;;;;;4978331;28;20206;-88
2021/03/01 03:24:29;;;;;;;66.10;35.33;;;3.70;99.90;;;;;;4978424;28;20194;-88
2021/03/01 03:26:55;;;;;;;51.58;33.15;;;3.70;99.90;;;;;;4977704;28;20336;-88
2021/03/01 03:29:22;;;;;;;48.40;33.70;;;3.70;99.90;;;;;;4978042;28;20240;-88
2021/03/01 03:31:49;;;;;;;50.08;33.85;;;3.60;99.90;;;;;;4977473;28;20195;-88
2021/03/01 03:34:15;;;;;;;62.28;36.38;;;3.50;99.90;;;;;;4977779;28;20201;-88
2021/03/01 03:36:49;;;;;;;60.72;34.10;;;3.60;99.90;;;;;;4977252;28;20251;-88
2021/03/01 03:39:18;;;;;;;53.33;33.05;;;3.60;99.90;;;;;;4977564;28;20190;-88
2021/03/01 03:41:47;;;;;;;43.67;30.35;;;3.60;99.90;;;;;;4977157;28;20214;-87
2021/03/01 03:44:16;;;;;;;54.95;32.00;;;3.60;99.90;;;;;;4977701;28;20194;-88
2021/03/01 03:46:42;;;;;;;48.72;31.60;;;3.60;99.90;;;;;;4977601;28;20255;-88
2021/03/01 03:49:11;;;;;;;55.72;32.70;;;3.50;99.90;;;;;;4978154;28;20191;-88
2021/03/01 03:51:39;;;;;;;50.05;32.95;;;3.50;99.90;;;;;;4977400;28;20192;-88
2021/03/01 03:54:14;;;;;;;54.78;35.42;;;3.50;99.90;;;;;;4977186;28;20194;-88
2021/03/01 03:56:45;;;;;;;49.50;30.73;;;3.50;99.90;;;;;;4977372;28;20198;-88
2021/03/01 03:59:12;;;;;;;43.22;31.52;;;3.50;99.90;;;;;;4977437;28;20204;-88
2021/03/01 04:01:41;;;;;;;47.15;32.15;;;3.40;99.90;;;;;;4977452;28;20595;-88
2021/03/01 04:04:09;;;;;;;58.83;32.38;;;3.40;99.90;;;;;;4976945;28;20537;-88
2021/03/01 04:06:39;;;;;;;47.03;30.90;;;3.40;99.90;;;;;;4977247;28;20240;-89
2021/03/01 04:09:09;;;;;;;60.78;32.97;;;3.40;99.90;;;;;;4976821;28;20189;-89
2021/03/01 04:11:36;;;;;;;62.22;31.55;;;3.30;99.90;;;;;;4976799;28;20540;-89
2021/03/01 04:14:04;;;;;;;47.63;31.35;;;3.30;99.90;;;;;;4976821;28;20192;-88
2021/03/01 04:16:32;;;;;;;54.05;35.30;;;3.30;99.90;;;;;;4976855;28;20204;-89
2021/03/01 04:19:03;;;;;;;54.17;32.47;;;3.30;99.90;;;;;;4977229;28;20648;-88
2021/03/01 04:21:31;;;;;;;59.22;32.95;;;3.30;99.90;;;;;;4976535;28;20201;-88
2021/03/01 04:24:01;;;;;;;46.70;31.77;;;3.30;99.90;;;;;;4976725;28;20255;-88
2021/03/01 04:26:28;;;;;;;55.55;31.30;;;3.30;99.90;;;;;;4976621;28;20192;-89
2021/03/01 04:28:56;;;;;;;51.38;31.70;;;3.30;99.90;;;;;;4976616;28;20187;-89
2021/03/01 04:31:22;;;;;;;54.90;32.25;;;3.30;99.90;;;;;;4976705;28;20204;-89
2021/03/01 04:33:50;;;;;;;51.13;31.05;;;3.30;99.90;;;;;;4976784;28;20629;-89
2021/03/01 04:36:18;;;;;;;60.80;32.75;;;3.30;99.90;;;;;;4978041;28;20189;-88
2021/03/01 04:38:44;;;;;;;60.10;34.55;;;3.30;99.90;;;;;;4978618;28;20285;-89
2021/03/01 04:41:13;;;;;;;52.75;32.83;;;3.30;99.90;;;;;;4985536;28;20200;-88
2021/03/01 04:43:42;;;;;;;57.50;36.67;;;3.40;99.90;;;;;;4975919;28;20276;-89
2021/03/01 04:46:09;;;;;;;50.25;34.03;;;3.40;99.90;;;;;;4976336;28;20193;-89
2021/03/01 04:48:37;;;;;;;58.63;34.95;;;3.40;99.90;;;;;;4976354;28;20194;-89
2021/03/01 04:51:05;;;;;;;52.60;32.17;;;3.40;99.90;;;;;;4976351;28;20287;-89
2021/03/01 04:53:34;;;;;;;57.00;35.90;;;3.40;99.90;;;;;;4975888;28;20193;-89
2021/03/01 04:56:03;;;;;;;62.08;33.25;;;3.40;99.90;;;;;;4975954;28;20200;-89
2021/03/01 04:58:31;;;;;;;54.05;34.30;;;3.40;99.90;;;;;;4986739;28;20198;-87
2021/03/01 05:01:01;;;;;;;56.90;35.03;;;3.40;99.90;;;;;;4987009;28;20201;-88
2021/03/01 05:03:29;;;;;;;57.10;36.83;;;3.40;99.90;;;;;;4977287;28;20223;-89
2021/03/01 05:05:58;;;;;;;59.58;36.83;;;3.50;99.90;;;;;;4977655;28;20194;-89
2021/03/01 05:08:25;;;;;;;47.72;33.88;;;3.50;99.90;;;;;;4976217;28;20235;-89
2021/03/01 05:10:52;;;;;;;54.92;32.67;;;3.50;99.90;;;;;;4976264;28;20194;-89
2021/03/01 05:13:18;;;;;;;63.22;34.88;;;3.50;99.90;;;;;;4982132;28;20194;-88
2021/03/01 05:15:46;;;;;;;59.60;32.67;;;3.40;99.90;;;;;;4992663;28;20212;-89
2021/03/01 05:18:12;;;;;;;62.65;37.00;;;3.40;99.90;;;;;;4977801;28;20200;-88
2021/03/01 05:20:39;;;;;;;50.17;32.22;;;3.40;99.90;;;;;;4976893;28;20196;-88
2021/03/01 05:23:05;;;;;;;62.60;33.28;;;3.40;99.90;;;;;;4975806;28;20685;-89
2021/03/01 05:25:32;;;;;;;60.25;33.35;;;3.40;99.90;;;;;;4975186;28;20197;-89
2021/03/01 05:27:59;;;;;;;53.67;32.60;;;3.40;99.90;;;;;;4975025;28;20214;-89
2021/03/01 05:30:26;;;;;;;60.13;34.70;;;3.40;99.90;;;;;;4975426;28;20221;-89
2021/03/01 05:32:53;;;;;;;63.20;33.38;;;3.40;99.90;;;;;;4974681;28;20555;-89
2021/03/01 05:35:19;;;;;;;52.47;32.72;;;3.40;99.90;;;;;;4975102;28;20192;-88
2021/03/01 05:37:46;;;;;;;56.08;35.90;;;3.40;99.90;;;;;;4975028;28;20205;-88
2021/03/01 05:40:13;;;;;;;65.22;37.47;;;3.40;99.90;;;;;;4976200;28;20193;-88
2021/03/01 05:42:41;;;;;;;61.47;36.30;;;3.40;99.90;;;;;;4954875;28;599749;-88
2021/03/01 05:45:09;;;;;;;57.00;34.95;;;3.40;99.90;;;;;;4977020;28;20447;-89
2021/03/01 05:47:36;;;;;;;60.83;35.58;;;3.40;99.90;;;;;;4975837;28;20207;-89
2021/03/01 05:50:07;;;;;;;60.42;39.38;;;3.50;99.90;;;;;;4975922;28;20204;-88
2021/03/01 05:52:36;;;;;;;58.90;34.25;;;3.50;99.90;;;;;;4976028;28;20565;-88
2021/03/01 05:55:04;;;;;;;53.95;35.13;;;3.50;99.90;;;;;;4975719;28;20194;-88
2021/03/01 05:57:32;;;;;;;53.05;30.85;;;3.50;99.90;;;;;;4973820;28;20675;-87
2021/03/01 06:00:00;;;;;;;51.08;31.23;;;3.40;99.90;;;;;;4971504;28;20193;-87
2021/03/01 06:02:27;;;;;;;54.65;33.63;;;3.40;99.90;;;;;;4956277;28;20232;-87
2021/03/01 06:04:54;;;;;;;53.67;33.15;;;3.40;99.90;;;;;;4968552;28;20573;-87
2021/03/01 06:07:21;;;;;;;54.97;33.10;;;3.30;99.90;;;;;;4975392;28;20229;-87
2021/03/01 06:09:47;;;;;;;51.97;32.90;;;3.30;99.90;;;;;;4974816;28;20192;-87
2021/03/01 06:12:14;;;;;;;49.58;31.98;;;3.40;99.90;;;;;;4974950;28;20661;-88
2021/03/01 06:14:40;;;;;;;49.95;30.45;;;3.30;99.90;;;;;;4974830;28;20194;-88
2021/03/01 06:17:14;;;;;;;52.08;31.08;;;3.30;99.90;;;;;;4974941;28;20589;-87
2021/03/01 06:19:49;;;;;;;48.40;31.55;;;3.30;99.90;;;;;;4974895;28;20585;-87
2021/03/01 06:22:17;;;;;;;48.97;30.50;;;3.20;99.90;;;;;;4975684;28;20599;-85
2021/03/01 06:25:01;;;;;;;44.90;29.40;;;3.20;99.90;;;;;;4977333;28;20217;-85
2021/03/01 06:27:28;;;;;;;42.75;30.00;;;3.20;99.90;;;;;;4977126;28;20205;-85
2021/03/01 06:30:08;;;;;;;42.50;29.58;;;3.10;99.90;;;;;;4974769;28;20192;-85
2021/03/01 06:32:35;;;;;;;39.17;29.63;;;3.00;99.90;;;;;;4975256;28;20228;-85
2021/03/01 06:35:03;;;;;;;49.28;29.98;;;3.00;99.90;;;;;;4968969;28;20190;-85
2021/03/01 06:37:29;;;;;;;40.72;26.75;;;3.00;99.90;;;;;;4975128;28;20197;-85
2021/03/01 06:39:57;;;;;;;45.67;28.05;;;3.00;99.90;;;;;;4976600;28;20277;-85
2021/03/01 06:42:29;;;;;;;44.60;27.63;;;3.00;99.90;;;;;;4979475;28;20262;-84
2021/03/01 06:45:13;;;;;;;45.05;29.58;;;3.00;99.90;;;;;;4983769;28;20188;-84
2021/03/01 06:47:51;;;;;;;49.53;29.23;;;3.00;99.90;;;;;;4985021;28;20262;-84
2021/03/01 06:50:31;;;;;;;45.42;29.70;;;3.10;99.90;;;;;;4982408;28;20640;-85
2021/03/01 06:52:58;;;;;;;48.05;30.70;;;3.10;99.90;;;;;;4981905;28;20193;-84
2021/03/01 06:55:25;;;;;;;63.03;29.13;;;3.10;99.90;;;;;;4978397;28;20193;-84
2021/03/01 06:57:51;;;;;;;62.22;28.23;;;3.10;99.90;;;;;;4978794;28;20193;-84
2021/03/01 07:00:24;;;;;;;47.85;29.52;;;3.10;99.90;;;;;;4978576;28;20197;-84
2021/03/01 07:02:50;;;;;;;51.35;29.63;;;3.10;99.90;;;;;;4979050;28;20219;-85
2021/03/01 07:05:17;;;;;;;49.95;27.98;;;3.10;99.90;;;;;;4979822;28;20190;-84
2021/03/01 07:07:43;;;;;;;51.10;27.50;;;3.10;99.90;;;;;;4979165;28;20197;-85
2021/03/01 07:10:11;;;;;;;49.63;27.15;;;3.10;99.90;;;;;;4978711;28;20198;-84
2021/03/01 07:12:40;;;;;;;49.05;28.10;;;3.20;99.90;;;;;;4979191;28;20205;-84
2021/03/01 07:15:09;;;;;;;61.17;31.77;;;3.20;99.90;;;;;;4978278;28;20198;-85
2021/03/01 07:17:37;;;;;;;41.67;27.38;;;3.30;99.90;;;;;;4979181;28;20197;-84
2021/03/01 07:20:05;;;;;;;49.35;32.13;;;3.30;99.90;;;;;;4978529;28;20641;-85
2021/03/01 07:22:32;;;;;;;40.63;27.13;;;3.40;99.90;;;;;;4978167;28;20221;-84
2021/03/01 07:24:59;;;;;;;56.20;29.50;;;3.30;99.90;;;;;;4978265;28;20191;-85
2021/03/01 07:27:27;;;;;;;44.70;28.17;;;3.40;99.90;;;;;;4966625;28;20186;-84
2021/03/01 07:29:57;;;;;;;54.05;30.98;;;3.40;99.90;;;;;;4977690;28;20197;-84
2021/03/01 07:32:27;;;;;;;50.20;29.83;;;3.40;99.90;;;;;;4978314;28;20275;-84
2021/03/01 07:34:54;;;;;;;45.88;28.75;;;3.50;99.90;;;;;;4978892;28;20201;-84
2021/03/01 07:37:21;;;;;;;47.17;28.50;;;3.60;99.90;;;;;;4978908;28;20200;-85
2021/03/01 07:39:47;;;;;;;43.00;27.80;;;3.60;99.90;;;;;;4979002;28;20194;-84
2021/03/01 07:42:15;;;;;;;55.55;27.70;;;3.70;99.90;;;;;;4980393;28;20236;-85
2021/03/01 07:44:45;;;;;;;37.10;26.15;;;3.70;99.90;;;;;;4978711;28;20191;-84
2021/03/01 07:47:13;;;;;;;39.65;22.55;;;3.70;99.90;;;;;;4979481;28;20582;-84
2021/03/01 07:49:42;;;;;;;40.38;25.73;;;3.70;99.90;;;;;;4978931;28;20201;-84
2021/03/01 07:52:36;;;;;;;33.10;24.25;;;3.70;99.90;;;;;;4959121;28;20221;-84
2021/03/01 07:55:05;;;;;;;41.20;24.25;;;3.80;99.90;;;;;;4963221;28;20249;-84
2021/03/01 07:57:33;;;;;;;37.22;23.38;;;3.90;99.90;;;;;;4977594;28;20249;-84
2021/03/01 08:00:01;;;;;;;37.72;23.35;;;3.90;99.90;;;;;;4976622;28;20197;-84
2021/03/01 08:02:30;;;;;;;41.03;24.35;;;3.90;99.90;;;;;;4971198;28;20218;-84
2021/03/01 08:04:58;;;;;;;32.75;22.92;;;3.90;99.90;;;;;;4976004;28;20190;-85
2021/03/01 08:07:42;;;;;;;35.30;21.85;;;4.00;99.90;;;;;;4977899;28;20189;-85
2021/03/01 08:10:10;;;;;;;35.75;24.05;;;4.10;99.90;;;;;;4977882;28;20252;-84
2021/03/01 08:13:01;;;;;;;38.72;23.30;;;4.10;99.90;;;;;;4977414;28;20190;-84
2021/03/01 08:15:32;;;;;;;42.13;26.98;;;4.10;99.90;;;;;;4976526;28;20200;-85
2021/03/01 08:17:59;;;;;;;36.05;22.70;;;4.20;99.90;;;;;;4977461;28;20204;-86
2021/03/01 08:20:44;;;;;;;35.10;25.05;;;4.20;99.90;;;;;;4977178;28;20199;-86
2021/03/01 08:23:19;;;;;;;42.22;25.15;;;4.20;99.90;;;;;;4959101;29;20670;-85
2021/03/01 08:25:52;;;;;;;36.53;22.55;;;4.30;99.90;;;;;;4972448;28;20198;-86
2021/03/01 08:28:50;;;;;;;33.75;20.33;;;4.40;99.90;;;;;;4976279;28;20197;-86
2021/03/01 08:31:37;;;;;;;28.20;21.25;;;4.30;99.90;;;;;;4976241;28;20237;-85
2021/03/01 08:34:26;;;;;;;39.08;24.27;;;4.30;99.90;;;;;;4965814;28;20194;-86
2021/03/01 08:36:52;;;;;;;34.55;23.00;;;4.30;99.90;;;;;;4970458;28;20198;-86
2021/03/01 08:39:53;;;;;;;28.75;22.00;;;4.40;99.90;;;;;;4977188;28;20194;-86
2021/03/01 08:42:49;;;;;;;41.40;26.80;;;4.50;99.90;;;;;;4976327;28;20641;-85
2021/03/01 08:45:28;;;;;;;32.53;21.85;;;4.70;99.90;;;;;;4975827;28;20194;-86
2021/03/01 08:47:57;;;;;;;35.88;21.77;;;4.60;99.90;;;;;;4976252;28;20230;-86
2021/03/01 08:50:30;;;;;;;35.50;20.92;;;4.50;99.90;;;;;;4968088;28;20200;-86
2021/03/01 08:52:56;;;;;;;34.40;20.55;;;4.50;99.90;;;;;;4972117;28;20194;-86
2021/03/01 08:55:24;;;;;;;39.92;22.50;;;4.50;99.90;;;;;;4977685;28;20191;-85
2021/03/01 08:58:05;;;;;;;27.73;19.48;;;4.50;99.90;;;;;;4977210;28;20194;-86
2021/03/01 09:00:33;;;;;;;30.45;19.38;;;4.50;99.90;;;;;;4973449;28;20203;-85
2021/03/01 09:03:10;;;;;;;25.05;16.63;;;4.50;99.90;;;;;;4975247;28;20539;-86
2021/03/01 09:05:37;;;;;;;26.50;17.40;;;4.50;99.90;;;;;;4967350;28;20191;-86
2021/03/01 09:08:04;;;;;;;23.63;16.83;;;4.50;99.90;;;;;;4969860;28;20206;-86
2021/03/01 09:10:39;;;;;;;25.77;17.08;;;4.60;99.90;;;;;;4972692;28;20300;-86
2021/03/01 09:13:08;;;;;;;26.52;15.95;;;4.70;99.90;;;;;;4975285;28;20190;-85
2021/03/01 09:15:34;;;;;;;19.30;14.27;;;4.70;99.90;;;;;;4975735;28;20182;-85
2021/03/01 09:18:00;;;;;;;25.30;15.25;;;4.70;99.90;;;;;;4975709;28;20198;-85
2021/03/01 09:20:27;;;;;;;19.90;15.10;;;4.70;99.90;;;;;;4975803;28;20194;-86
2021/03/01 09:22:53;;;;;;;22.02;15.77;;;4.60;99.90;;;;;;4963656;28;20215;-86
2021/03/01 09:25:27;;;;;;;25.65;16.00;;;4.60;99.90;;;;;;4974269;28;20187;-86
2021/03/01 09:27:54;;;;;;;22.30;16.73;;;4.60;99.90;;;;;;4975779;28;20186;-86
2021/03/01 09:30:22;;;;;;;24.27;18.63;;;4.70;99.90;;;;;;4976963;28;20254;-86
2021/03/01 09:33:00;;;;;;;26.80;18.20;;;4.90;99.90;;;;;;4976090;28;20187;-85
2021/03/01 09:35:28;;;;;;;23.38;17.80;;;4.90;99.90;;;;;;4975320;28;20190;-89
2021/03/01 09:37:54;;;;;;;23.05;17.00;;;5.00;99.90;;;;;;4971078;28;20268;-87
2021/03/01 09:40:22;;;;;;;21.02;15.40;;;5.20;99.90;;;;;;4978602;28;20225;-87
2021/03/01 09:42:51;;;;;;;22.00;16.67;;;5.30;99.90;;;;;;4976895;28;20241;-89
2021/03/01 09:45:18;;;;;;;18.33;13.38;;;5.40;99.90;;;;;;4975545;28;20210;-87
2021/03/01 09:47:49;;;;;;;20.45;13.45;;;5.50;99.90;;;;;;4984298;28;20204;-87
2021/03/01 09:50:16;;;;;;;17.13;14.27;;;5.70;99.90;;;;;;4976491;28;20616;-88
2021/03/01 09:52:46;;;;;;;22.75;14.10;;;5.80;99.90;;;;;;4974906;28;20205;-88
2021/03/01 09:55:13;;;;;;;19.00;14.55;;;5.90;99.90;;;;;;4976264;28;20634;-86
2021/03/01 09:57:39;;;;;;;25.48;16.75;;;5.90;99.90;;;;;;4974370;28;20193;-88
2021/03/01 10:00:28;;;;;;;23.70;15.40;;;6.00;99.90;;;;;;4976310;28;20713;-85
2021/03/01 10:03:00;;;;;;;18.52;13.45;;;6.00;99.90;;;;;;4964761;28;20242;-86
2021/03/01 10:05:28;;;;;;;17.45;13.40;;;6.00;99.90;;;;;;4974564;28;20241;-86
2021/03/01 10:08:02;;;;;;;17.92;12.27;;;6.10;99.90;;;;;;4972548;28;20187;-86
2021/03/01 10:10:37;;;;;;;21.58;13.68;;;6.10;99.90;;;;;;4960131;28;20286;-86
2021/03/01 10:13:04;;;;;;;21.20;14.55;;;6.10;99.90;;;;;;4975405;28;20195;-86
2021/03/01 10:15:42;;;;;;;18.77;13.50;;;6.10;99.90;;;;;;4975207;28;20281;-86
2021/03/01 10:18:11;;;;;;;18.77;11.98;;;6.20;99.90;;;;;;4976129;28;20245;-86
2021/03/01 10:20:53;;;;;;;20.67;14.23;;;6.20;99.90;;;;;;4975927;28;20198;-86
2021/03/01 10:23:34;;;;;;;19.85;14.15;;;6.40;99.90;;;;;;4975376;28;20303;-86
2021/03/01 10:26:16;;;;;;;18.02;14.02;;;6.50;99.90;;;;;;4975447;28;20190;-87
2021/03/01 10:29:00;;;;;;;16.15;12.40;;;6.60;99.90;;;;;;4975542;28;20190;-86
2021/03/01 10:31:31;;;;;;;18.67;13.77;;;6.80;99.90;;;;;;4974665;28;20241;-86
2021/03/01 10:34:00;;;;;;;18.25;13.95;;;6.90;99.90;;;;;;4975049;28;20195;-86
2021/03/01 10:36:32;;;;;;;20.27;14.38;;;6.90;99.90;;;;;;4974996;28;20214;-87
2021/03/01 10:39:08;;;;;;;17.17;12.65;;;6.90;99.90;;;;;;4975613;28;20214;-86
2021/03/01 10:41:41;;;;;;;18.83;13.07;;;6.70;99.90;;;;;;4975674;28;20247;-86
2021/03/01 10:44:09;;;;;;;18.67;12.73;;;6.60;99.90;;;;;;4975054;28;20221;-87
2021/03/01 10:46:38;;;;;;;19.20;14.07;;;6.60;99.90;;;;;;4976740;28;20233;-87
2021/03/01 10:49:15;;;;;;;17.85;13.20;;;6.70;99.90;;;;;;4977304;28;20289;-87
2021/03/01 10:51:41;;;;;;;21.83;13.95;;;6.70;99.90;;;;;;4975158;28;20197;-86
2021/03/01 10:54:08;;;;;;;18.90;12.60;;;6.70;99.90;;;;;;4974574;28;20295;-85
2021/03/01 10:56:34;;;;;;;19.15;13.43;;;6.70;99.90;;;;;;4975292;28;20413;-86
2021/03/01 10:59:00;;;;;;;16.52;13.60;;;6.70;99.90;;;;;;4974866;28;20475;-86
2021/03/01 11:01:32;;;;;;;16.63;11.68;;;6.60;99.90;;;;;;4975063;28;20191;-86
2021/03/01 11:03:58;;;;;;;18.33;11.55;;;6.40;99.90;;;;;;4975787;28;20218;-85
2021/03/01 11:06:25;;;;;;;15.93;13.75;;;6.30;99.90;;;;;;4976098;28;20195;-85
2021/03/01 11:08:51;;;;;;;18.05;12.48;;;6.20;99.90;;;;;;4977224;28;20191;-85
2021/03/01 11:11:18;;;;;;;17.73;11.52;;;6.20;99.90;;;;;;4979302;28;20191;-86
2021/03/01 11:13:44;;;;;;;16.58;11.77;;;6.20;99.90;;;;;;4978389;28;20218;-85
2021/03/01 11:16:11;;;;;;;15.15;10.85;;;6.30;99.90;;;;;;4978620;28;20195;-86
2021/03/01 11:18:37;;;;;;;17.05;11.23;;;6.40;99.90;;;;;;4975120;28;20594;-85
2021/03/01 11:21:03;;;;;;;17.15;12.43;;;6.40;99.90;;;;;;4974022;28;20195;-85
2021/03/01 11:23:31;;;;;;;19.48;12.43;;;6.50;99.90;;;;;;4975879;28;20285;-85
2021/03/01 11:25:57;;;;;;;17.30;12.10;;;6.40;99.90;;;;;;4966356;28;20195;-86
2021/03/01 11:28:24;;;;;;;18.70;12.40;;;6.30;99.90;;;;;;4975386;28;20195;-86
2021/03/01 11:30:50;;;;;;;15.70;12.80;;;6.40;99.90;;;;;;4968653;28;20195;-84
2021/03/01 11:33:17;;;;;;;16.60;13.05;;;6.40;99.90;;;;;;4977520;28;20191;-86
2021/03/01 11:35:43;;;;;;;18.85;13.43;;;6.40;99.90;;;;;;4977362;28;20221;-86
2021/03/01 11:38:10;;;;;;;17.95;12.50;;;6.40;99.90;;;;;;4977409;28;20541;-88
2021/03/01 11:40:37;;;;;;;15.65;12.80;;;6.50;99.90;;;;;;4979759;28;20191;-86
2021/03/01 11:43:03;;;;;;;18.52;13.38;;;6.60;99.90;;;;;;4979102;28;20562;-86
2021/03/01 11:45:30;;;;;;;21.33;13.32;;;6.70;99.90;;;;;;4980582;28;20190;-86
2021/03/01 11:47:56;;;;;;;16.83;12.20;;;6.70;99.90;;;;;;4978861;28;20643;-86
2021/03/01 11:50:23;;;;;;;16.52;11.63;;;6.80;99.90;;;;;;4977645;28;20210;-86
2021/03/01 11:52:49;;;;;;;18.10;11.95;;;7.00;99.90;;;;;;4977929;28;20195;-86
2021/03/01 11:55:16;;;;;;;20.30;13.60;;;7.20;99.90;;;;;;4977753;28;20194;-86
2021/03/01 11:57:43;;;;;;;15.95;12.82;;;7.20;99.90;;;;;;4978029;28;20229;-86
2021/03/01 12:00:10;;;;;;;26.50;14.82;;;7.30;99.90;;;;;;4972795;28;20191;-85
2021/03/01 12:02:36;;;;;;;18.08;13.80;;;7.40;99.90;;;;;;4968550;28;20670;-85
2021/03/01 12:05:03;;;;;;;20.80;14.32;;;7.50;99.90;;;;;;4974711;28;20195;-86
2021/03/01 12:07:29;;;;;;;27.45;15.65;;;7.60;99.90;;;;;;4964489;28;20242;-85
2021/03/01 12:09:56;;;;;;;23.23;14.52;;;7.80;99.90;;;;;;4977383;28;20674;-84
2021/03/01 12:12:22;;;;;;;20.75;13.70;;;8.10;99.90;;;;;;4977072;28;20201;-86
2021/03/01 12:14:49;;;;;;;19.80;13.27;;;8.20;99.90;;;;;;4977755;28;20191;-86
2021/03/01 12:17:15;;;;;;;16.80;12.70;;;8.20;99.90;;;;;;4977318;28;20245;-86
2021/03/01 12:19:42;;;;;;;19.80;12.98;;;8.00;99.90;;;;;;4976564;28;20202;-86
2021/03/01 12:22:08;;;;;;;20.92;13.75;;;8.00;99.90;;;;;;4976719;28;20194;-86
2021/03/01 12:24:35;;;;;;;23.42;16.00;;;7.80;99.90;;;;;;4976446;28;20191;-86
2021/03/01 12:27:01;;;;;;;20.20;15.40;;;7.90;99.90;;;;;;4977535;28;20281;-86
2021/03/01 12:29:28;;;;;;;19.65;13.48;;;7.90;99.90;;;;;;4978690;28;20191;-86
2021/03/01 12:31:55;;;;;;;19.92;13.38;;;7.90;99.90;;;;;;4978630;28;20337;-85
2021/03/01 12:34:22;;;;;;;20.05;11.60;;;8.00;99.90;;;;;;4977486;28;20670;-86
2021/03/01 12:36:48;;;;;;;17.63;12.73;;;8.10;99.90;;;;;;4977005;28;20200;-86
2021/03/01 12:39:14;;;;;;;22.10;13.77;;;8.00;99.90;;;;;;4978682;28;20195;-86
2021/03/01 12:41:41;;;;;;;18.42;13.20;;;8.00;99.90;;;;;;4976927;28;20270;-86
2021/03/01 12:44:08;;;;;;;18.38;13.13;;;7.90;99.90;;;;;;4972813;28;20231;-86